createdAt,value
2023-02-26T00:00:02.254Z,82.06
2023-02-26T00:01:02.228Z,82.09
2023-02-26T00:02:02.304Z,82.20
2023-02-26T00:03:02.406Z,82.20
2023-02-26T00:04:02.397Z,82.06
2023-02-26T00:05:02.188Z,81.95
2023-02-26T00:06:02.185Z,81.99
2023-02-26T00:07:02.168Z,81.85
2023-02-26T00:08:02.159Z,81.99
2023-02-26T00:09:02.315Z,82.09
2023-02-26T00:10:02.131Z,82.09
2023-02-26T00:11:02.104Z,82.09
2023-02-26T00:12:02.108Z,82.20
2023-02-26T00:13:02.076Z,82.30
2023-02-26T00:14:02.248Z,82.30
2023-02-26T00:15:02.057Z,82.40
2023-02-26T00:16:02.238Z,82.40
2023-02-26T00:17:03.453Z,82.40
2023-02-26T00:18:02.031Z,82.40
2023-02-26T00:19:02.016Z,82.30
2023-02-26T00:20:01.992Z,82.20
2023-02-26T00:21:02.164Z,82.20
2023-02-26T00:22:01.973Z,82.20
2023-02-26T00:23:01.977Z,82.20
2023-02-26T00:24:01.944Z,82.20
2023-02-26T00:25:01.946Z,82.20
2023-02-26T00:26:02.105Z,82.09
2023-02-26T00:27:02.099Z,82.09
2023-02-26T00:28:01.920Z,82.30
2023-02-26T00:29:01.892Z,82.40
2023-02-26T00:30:01.904Z,82.40
2023-02-26T00:31:01.911Z,82.51
2023-02-26T00:32:02.181Z,82.62
2023-02-26T00:33:02.023Z,82.51
2023-02-26T00:34:01.821Z,82.51
2023-02-26T00:35:01.816Z,82.40
2023-02-26T00:36:01.812Z,82.20
2023-02-26T00:37:01.793Z,82.30
2023-02-26T00:38:01.975Z,82.30
2023-02-26T00:39:01.780Z,82.30
2023-02-26T00:40:01.765Z,82.40
2023-02-26T00:41:01.740Z,82.51
2023-02-26T00:42:01.734Z,82.51
2023-02-26T00:43:01.728Z,82.51
2023-02-26T00:44:01.702Z,82.51
2023-02-26T00:45:01.696Z,82.62
2023-02-26T00:46:01.757Z,82.62
2023-02-26T00:47:01.669Z,82.72
2023-02-26T00:48:01.836Z,82.82
2023-02-26T00:49:01.819Z,82.93
2023-02-26T00:50:01.627Z,82.93
2023-02-26T00:51:01.609Z,82.93
2023-02-26T00:52:01.639Z,83.03
2023-02-26T00:53:01.607Z,83.03
2023-02-26T00:54:01.755Z,83.03
2023-02-26T00:55:01.566Z,82.93
2023-02-26T00:56:01.563Z,82.72
2023-02-26T00:57:01.548Z,82.72
2023-02-26T00:58:01.535Z,82.82
2023-02-26T00:59:01.686Z,82.72
2023-02-26T01:00:01.676Z,82.47
2023-02-26T01:01:01.502Z,82.26
2023-02-26T01:02:01.482Z,82.06
2023-02-26T01:03:01.467Z,82.16
2023-02-26T01:04:01.476Z,82.06
2023-02-26T01:05:01.723Z,82.06
2023-02-26T01:06:01.432Z,81.95
2023-02-26T01:07:01.420Z,81.85
2023-02-26T01:08:01.400Z,81.53
2023-02-26T01:09:01.392Z,81.53
2023-02-26T01:10:01.577Z,81.53
2023-02-26T01:11:01.361Z,81.63
2023-02-26T01:12:01.363Z,81.53
2023-02-26T01:13:01.346Z,81.63
2023-02-26T01:14:01.329Z,81.63
2023-02-26T01:15:01.357Z,81.43
2023-02-26T01:16:01.544Z,81.12
2023-02-26T01:17:01.301Z,81.22
2023-02-26T01:18:01.283Z,81.22
2023-02-26T01:19:01.275Z,81.29
2023-02-26T01:20:02.103Z,81.32
2023-02-26T01:21:02.851Z,81.29
2023-02-26T01:22:03.106Z,81.18
2023-02-26T01:23:02.147Z,80.97
2023-02-26T01:24:02.567Z,80.87
2023-02-26T01:25:02.136Z,80.76
2023-02-26T01:26:02.310Z,80.76
2023-02-26T01:27:02.038Z,80.66
2023-02-26T01:28:04.281Z,80.66
2023-02-26T01:29:02.622Z,80.66
2023-02-26T01:30:02.004Z,80.55
2023-02-26T01:31:02.056Z,80.24
2023-02-26T01:32:02.436Z,80.03
2023-02-26T01:33:01.970Z,79.82
2023-02-26T01:34:03.736Z,79.72
2023-02-26T01:35:02.987Z,79.82
2023-02-26T01:36:01.952Z,79.82
2023-02-26T01:37:03.224Z,79.93
2023-02-26T01:38:05.031Z,80.13
2023-02-26T01:39:02.146Z,80.27
2023-02-26T01:40:01.123Z,80.13
2023-02-26T01:41:01.933Z,79.96
2023-02-26T01:42:01.118Z,80.07
2023-02-26T01:43:02.039Z,79.86
2023-02-26T01:44:02.047Z,79.23
2023-02-26T01:45:00.967Z,78.81
2023-02-26T01:46:00.947Z,78.60
2023-02-26T01:47:00.938Z,78.60
2023-02-26T01:48:00.908Z,78.70
2023-02-26T01:49:01.088Z,78.60
2023-02-26T01:50:00.890Z,78.39
2023-02-26T01:51:00.882Z,78.29
2023-02-26T01:52:00.862Z,78.18
2023-02-26T01:53:00.866Z,78.08
2023-02-26T01:54:01.043Z,77.97
2023-02-26T01:55:00.838Z,77.97
2023-02-26T01:56:00.812Z,77.76
2023-02-26T01:57:00.824Z,77.97
2023-02-26T01:58:00.786Z,77.97
2023-02-26T01:59:00.782Z,77.76
2023-02-26T02:00:00.942Z,77.87
2023-02-26T02:01:00.751Z,77.87
2023-02-26T02:02:00.740Z,77.97
2023-02-26T02:03:00.814Z,78.18
2023-02-26T02:04:00.728Z,78.08
2023-02-26T02:05:00.888Z,77.97
2023-02-26T02:06:00.711Z,77.87
2023-02-26T02:07:00.691Z,77.87
2023-02-26T02:08:00.667Z,77.91
2023-02-26T02:09:00.662Z,77.76
2023-02-26T02:10:00.817Z,77.69
2023-02-26T02:11:00.644Z,77.59
2023-02-26T02:12:00.628Z,77.59
2023-02-26T02:13:00.608Z,77.80
2023-02-26T02:14:00.598Z,77.59
2023-02-26T02:15:00.757Z,77.28
2023-02-26T02:16:00.627Z,77.07
2023-02-26T02:17:00.573Z,77.07
2023-02-26T02:18:00.539Z,77.07
2023-02-26T02:19:00.540Z,77.17
2023-02-26T02:20:00.512Z,77.28
2023-02-26T02:21:00.505Z,77.28
2023-02-26T02:22:03.170Z,77.17
2023-02-26T02:23:00.791Z,77.17
2023-02-26T02:24:00.458Z,77.17
2023-02-26T02:25:00.453Z,77.28
2023-02-26T02:26:00.437Z,77.28
2023-02-26T02:27:00.429Z,77.07
2023-02-26T02:28:00.601Z,77.17
2023-02-26T02:29:00.407Z,77.17
2023-02-26T02:30:00.388Z,77.17
2023-02-26T02:31:00.457Z,77.28
2023-02-26T02:32:00.568Z,77.31
2023-02-26T02:33:00.536Z,77.42
2023-02-26T02:34:00.325Z,77.52
2023-02-26T02:35:00.337Z,77.42
2023-02-26T02:36:00.321Z,77.52
2023-02-26T02:37:00.305Z,77.62
2023-02-26T02:38:00.454Z,77.62
2023-02-26T02:39:00.462Z,77.83
2023-02-26T02:40:00.269Z,77.94
2023-02-26T02:41:00.253Z,77.94
2023-02-26T02:42:00.245Z,78.05
2023-02-26T02:43:00.412Z,78.15
2023-02-26T02:44:00.221Z,78.25
2023-02-26T02:45:00.372Z,78.36
2023-02-26T02:46:00.286Z,78.57
2023-02-26T02:47:00.278Z,78.46
2023-02-26T02:48:00.171Z,78.25
2023-02-26T02:49:00.148Z,78.29
2023-02-26T02:50:00.317Z,78.46
2023-02-26T02:51:00.317Z,78.71
2023-02-26T02:52:00.123Z,78.71
2023-02-26T02:53:00.120Z,78.81
2023-02-26T02:54:00.117Z,78.92
2023-02-26T02:55:00.095Z,78.92
2023-02-26T02:56:00.254Z,79.02
2023-02-26T02:57:00.055Z,78.71
2023-02-26T02:58:00.050Z,78.78
2023-02-26T02:59:00.044Z,78.67
2023-02-26T03:00:00.027Z,78.67
2023-02-26T03:01:00.227Z,78.67
2023-02-26T03:02:00.000Z,78.67
2023-02-26T03:03:00.034Z,78.67
2023-02-26T03:03:59.979Z,78.78
2023-02-26T03:04:59.950Z,78.78
2023-02-26T03:05:59.950Z,78.78
2023-02-26T03:06:59.940Z,78.99
2023-02-26T03:07:59.918Z,79.09
2023-02-26T03:08:59.929Z,79.20
2023-02-26T03:09:59.902Z,79.20
2023-02-26T03:11:00.065Z,79.41
2023-02-26T03:11:59.868Z,79.30
2023-02-26T03:13:00.038Z,79.30
2023-02-26T03:13:59.837Z,79.30
2023-02-26T03:14:59.829Z,79.30
2023-02-26T03:16:00.524Z,79.09
2023-02-26T03:16:59.826Z,79.20
2023-02-26T03:17:59.786Z,79.30
2023-02-26T03:18:59.784Z,79.30
2023-02-26T03:19:59.761Z,79.30
2023-02-26T03:20:59.760Z,79.41
2023-02-26T03:21:59.918Z,79.51
2023-02-26T03:22:59.739Z,79.61
2023-02-26T03:23:59.739Z,79.61
2023-02-26T03:24:59.709Z,79.72
2023-02-26T03:25:59.694Z,79.83
2023-02-26T03:26:59.698Z,80.07
2023-02-26T03:27:59.677Z,80.07
2023-02-26T03:28:59.857Z,80.18
2023-02-26T03:29:59.646Z,80.18
2023-02-26T03:30:59.654Z,80.28
2023-02-26T03:31:59.706Z,80.38
2023-02-26T03:32:59.616Z,80.38
2023-02-26T03:33:59.771Z,80.38
2023-02-26T03:34:59.779Z,80.38
2023-02-26T03:35:59.576Z,80.60
2023-02-26T03:36:59.585Z,80.60
2023-02-26T03:37:59.554Z,80.60
2023-02-26T03:38:59.539Z,80.70
2023-02-26T03:39:59.528Z,80.80
2023-02-26T03:40:59.515Z,80.80
2023-02-26T03:41:59.516Z,80.91
2023-02-26T03:42:59.497Z,80.94
2023-02-26T03:43:59.476Z,81.05
2023-02-26T03:44:59.645Z,81.05
2023-02-26T03:45:59.501Z,81.05
2023-02-26T03:46:59.444Z,81.05
2023-02-26T03:47:59.434Z,81.05
2023-02-26T03:48:59.441Z,81.16
2023-02-26T03:49:59.587Z,81.26
2023-02-26T03:50:59.402Z,81.26
2023-02-26T03:51:59.377Z,81.26
2023-02-26T03:52:59.365Z,81.26
2023-02-26T03:53:59.365Z,81.37
2023-02-26T03:54:59.517Z,81.47
2023-02-26T03:55:59.493Z,81.57
2023-02-26T03:56:59.323Z,81.79
2023-02-26T03:57:59.301Z,81.89
2023-02-26T03:58:59.304Z,81.99
2023-02-26T03:59:59.283Z,81.99
2023-02-26T04:00:59.440Z,81.99
2023-02-26T04:01:59.332Z,82.10
2023-02-26T04:02:59.251Z,82.20
2023-02-26T04:03:59.276Z,82.20
2023-02-26T04:04:59.217Z,82.20
2023-02-26T04:05:59.399Z,82.31
2023-02-26T04:06:59.215Z,82.45
2023-02-26T04:07:59.177Z,82.56
2023-02-26T04:08:59.179Z,82.56
2023-02-26T04:09:59.157Z,82.45
2023-02-26T04:10:59.307Z,82.45
2023-02-26T04:11:59.161Z,82.66
2023-02-26T04:12:59.866Z,82.66
2023-02-26T04:13:59.108Z,82.66
2023-02-26T04:14:59.129Z,82.66
2023-02-26T04:15:59.257Z,82.76
2023-02-26T04:16:59.140Z,82.87
2023-02-26T04:17:59.059Z,82.98
2023-02-26T04:18:59.053Z,82.98
2023-02-26T04:19:59.025Z,83.08
2023-02-26T04:20:59.195Z,83.08
2023-02-26T04:21:59.023Z,83.08
2023-02-26T04:22:59.012Z,83.08
2023-02-26T04:23:58.997Z,83.08
2023-02-26T04:24:58.983Z,83.18
2023-02-26T04:25:58.964Z,83.29
2023-02-26T04:26:58.963Z,83.40
2023-02-26T04:27:58.960Z,83.50
2023-02-26T04:28:58.911Z,83.50
2023-02-26T04:29:58.904Z,83.61
2023-02-26T04:30:59.013Z,83.61
2023-02-26T04:31:59.043Z,83.61
2023-02-26T04:32:58.893Z,83.61
2023-02-26T04:33:58.851Z,83.61
2023-02-26T04:34:58.848Z,83.61
2023-02-26T04:35:58.852Z,83.71
2023-02-26T04:36:58.827Z,83.92
2023-02-26T04:37:58.885Z,83.92
2023-02-26T04:38:58.820Z,83.92
2023-02-26T04:39:58.816Z,84.03
2023-02-26T04:40:58.783Z,84.03
2023-02-26T04:41:58.769Z,84.13
2023-02-26T04:42:58.783Z,84.03
2023-02-26T04:43:58.729Z,84.03
2023-02-26T04:44:58.735Z,84.03
2023-02-26T04:45:58.719Z,84.03
2023-02-26T04:46:58.705Z,84.13
2023-02-26T04:47:58.692Z,84.13
2023-02-26T04:48:58.851Z,84.13
2023-02-26T04:49:58.663Z,84.13
2023-02-26T04:50:58.648Z,84.03
2023-02-26T04:51:58.676Z,84.03
2023-02-26T04:52:58.633Z,84.03
2023-02-26T04:53:58.618Z,83.92
2023-02-26T04:54:58.602Z,83.96
2023-02-26T04:55:58.590Z,84.06
2023-02-26T04:56:58.595Z,84.06
2023-02-26T04:57:58.563Z,84.06
2023-02-26T04:58:58.732Z,84.06
2023-02-26T04:59:58.548Z,84.06
2023-02-26T05:00:58.534Z,84.06
2023-02-26T05:01:58.571Z,84.27
2023-02-26T05:02:58.504Z,84.27
2023-02-26T05:03:58.487Z,84.38
2023-02-26T05:04:58.654Z,84.38
2023-02-26T05:05:58.466Z,84.48
2023-02-26T05:06:58.458Z,84.48
2023-02-26T05:07:58.438Z,84.59
2023-02-26T05:08:58.431Z,84.59
2023-02-26T05:09:58.418Z,84.59
2023-02-26T05:10:58.400Z,84.59
2023-02-26T05:11:58.388Z,84.59
2023-02-26T05:12:58.392Z,84.69
2023-02-26T05:13:58.368Z,84.69
2023-02-26T05:14:58.607Z,84.69
2023-02-26T05:15:58.562Z,84.73
2023-02-26T05:16:58.376Z,84.84
2023-02-26T05:17:58.313Z,84.84
2023-02-26T05:18:58.312Z,84.84
2023-02-26T05:19:58.295Z,84.73
2023-02-26T05:20:58.302Z,84.84
2023-02-26T05:21:58.264Z,84.84
2023-02-26T05:22:58.260Z,84.94
2023-02-26T05:23:58.237Z,84.94
2023-02-26T05:24:58.236Z,85.05
2023-02-26T05:25:58.404Z,84.94
2023-02-26T05:26:58.385Z,84.94
2023-02-26T05:27:58.203Z,85.05
2023-02-26T05:28:58.185Z,85.05
2023-02-26T05:29:58.184Z,85.05
2023-02-26T05:30:58.259Z,85.05
2023-02-26T05:31:58.325Z,85.05
2023-02-26T05:32:58.153Z,84.94
2023-02-26T05:33:58.127Z,84.94
2023-02-26T05:34:58.113Z,85.05
2023-02-26T05:35:58.108Z,84.94
2023-02-26T05:36:58.262Z,84.94
2023-02-26T05:37:58.259Z,84.94
2023-02-26T05:38:58.065Z,85.05
2023-02-26T05:39:58.074Z,85.05
2023-02-26T05:40:58.065Z,84.94
2023-02-26T05:41:58.204Z,84.94
2023-02-26T05:42:58.046Z,84.94
2023-02-26T05:43:57.994Z,84.94
2023-02-26T05:44:57.987Z,84.94
2023-02-26T05:45:57.986Z,84.94
2023-02-26T05:46:58.028Z,84.94
2023-02-26T05:47:57.949Z,84.84
2023-02-26T05:48:57.939Z,84.94
2023-02-26T05:49:57.942Z,84.84
2023-02-26T05:50:57.920Z,84.73
2023-02-26T05:51:57.897Z,84.73
2023-02-26T05:52:58.058Z,84.73
2023-02-26T05:53:57.876Z,84.77
2023-02-26T05:54:57.860Z,84.94
2023-02-26T05:55:57.848Z,84.98
2023-02-26T05:56:57.850Z,84.98
2023-02-26T05:57:57.994Z,84.98
2023-02-26T05:58:57.835Z,84.98
2023-02-26T05:59:57.795Z,85.08
2023-02-26T06:00:57.802Z,85.08
2023-02-26T06:01:57.826Z,85.08
2023-02-26T06:02:57.832Z,85.19
2023-02-26T06:03:57.748Z,85.30
2023-02-26T06:04:57.750Z,85.19
2023-02-26T06:05:57.734Z,85.19
2023-02-26T06:06:57.722Z,85.19
2023-02-26T06:07:57.723Z,85.19
2023-02-26T06:08:57.758Z,85.08
2023-02-26T06:09:57.672Z,85.08
2023-02-26T06:10:57.663Z,85.08
2023-02-26T06:11:57.680Z,85.19
2023-02-26T06:12:57.648Z,85.19
2023-02-26T06:13:57.641Z,85.30
2023-02-26T06:14:57.635Z,85.30
2023-02-26T06:15:57.633Z,85.30
2023-02-26T06:16:57.606Z,85.30
2023-02-26T06:17:57.566Z,85.30
2023-02-26T06:18:57.729Z,85.40
2023-02-26T06:19:57.742Z,85.61
2023-02-26T06:20:57.535Z,85.82
2023-02-26T06:21:57.527Z,85.93
2023-02-26T06:22:57.516Z,86.03
2023-02-26T06:23:57.716Z,86.07
2023-02-26T06:24:57.484Z,86.18
2023-02-26T06:25:57.474Z,86.28
2023-02-26T06:26:57.466Z,86.28
2023-02-26T06:27:57.444Z,86.38
2023-02-26T06:28:57.445Z,86.38
2023-02-26T06:29:57.446Z,86.49
2023-02-26T06:30:57.519Z,86.49
2023-02-26T06:31:57.631Z,86.49
2023-02-26T06:32:57.408Z,86.49
2023-02-26T06:33:57.379Z,86.38
2023-02-26T06:34:57.564Z,86.28
2023-02-26T06:35:57.357Z,86.28
2023-02-26T06:36:57.361Z,86.28
2023-02-26T06:37:57.521Z,86.28
2023-02-26T06:38:57.325Z,86.18
2023-02-26T06:39:57.320Z,86.28
2023-02-26T06:40:57.296Z,86.38
2023-02-26T06:41:57.294Z,86.38
2023-02-26T06:42:57.275Z,86.49
2023-02-26T06:43:57.267Z,86.49
2023-02-26T06:44:57.432Z,86.49
2023-02-26T06:45:57.254Z,86.38
2023-02-26T06:46:57.233Z,86.49
2023-02-26T06:47:57.209Z,86.49
2023-02-26T06:48:57.393Z,86.49
2023-02-26T06:49:57.184Z,86.49
2023-02-26T06:50:57.214Z,86.49
2023-02-26T06:51:57.155Z,86.60
2023-02-26T06:52:57.146Z,86.60
2023-02-26T06:53:57.307Z,86.70
2023-02-26T06:54:57.139Z,86.70
2023-02-26T06:55:57.297Z,86.60
2023-02-26T06:56:57.104Z,86.70
2023-02-26T06:57:57.092Z,86.70
2023-02-26T06:58:57.080Z,86.70
2023-02-26T06:59:57.112Z,86.70
2023-02-26T07:00:57.278Z,86.80
2023-02-26T07:01:57.092Z,86.80
2023-02-26T07:02:57.031Z,86.80
2023-02-26T07:03:57.012Z,86.60
2023-02-26T07:04:57.011Z,86.49
2023-02-26T07:05:57.309Z,86.49
2023-02-26T07:06:56.991Z,86.49
2023-02-26T07:07:56.962Z,86.60
2023-02-26T07:08:57.027Z,86.49
2023-02-26T07:09:56.938Z,86.38
2023-02-26T07:10:56.943Z,86.38
2023-02-26T07:11:57.088Z,86.38
2023-02-26T07:12:56.901Z,86.38
2023-02-26T07:13:56.928Z,86.38
2023-02-26T07:14:56.883Z,86.18
2023-02-26T07:15:56.865Z,86.07
2023-02-26T07:16:57.074Z,86.07
2023-02-26T07:17:56.840Z,86.18
2023-02-26T07:18:56.828Z,86.18
2023-02-26T07:19:56.806Z,86.13
2023-02-26T07:20:56.808Z,86.07
2023-02-26T07:21:56.802Z,86.07
2023-02-26T07:22:56.954Z,86.03
2023-02-26T07:23:56.762Z,86.03
2023-02-26T07:24:56.753Z,86.13
2023-02-26T07:25:56.741Z,86.03
2023-02-26T07:26:56.723Z,86.13
2023-02-26T07:27:56.902Z,86.03
2023-02-26T07:28:56.707Z,86.03
2023-02-26T07:29:56.692Z,86.03
2023-02-26T07:30:56.857Z,85.93
2023-02-26T07:31:56.824Z,85.93
2023-02-26T07:32:56.670Z,85.93
2023-02-26T07:33:56.817Z,85.93
2023-02-26T07:34:56.637Z,85.93
2023-02-26T07:35:56.610Z,85.93
2023-02-26T07:36:56.621Z,85.93
2023-02-26T07:37:56.768Z,85.93
2023-02-26T07:38:56.600Z,85.93
2023-02-26T07:39:56.571Z,85.82
2023-02-26T07:40:56.584Z,85.82
2023-02-26T07:41:56.706Z,85.82
2023-02-26T07:42:56.538Z,85.72
2023-02-26T07:43:56.707Z,85.57
2023-02-26T07:44:56.504Z,85.68
2023-02-26T07:45:56.535Z,85.57
2023-02-26T07:46:56.483Z,85.68
2023-02-26T07:47:56.484Z,85.57
2023-02-26T07:48:56.631Z,85.47
2023-02-26T07:49:56.432Z,85.25
2023-02-26T07:50:56.432Z,85.05
2023-02-26T07:51:56.412Z,85.05
2023-02-26T07:52:56.416Z,84.94
2023-02-26T07:53:56.409Z,85.05
2023-02-26T07:54:56.407Z,85.15
2023-02-26T07:55:56.372Z,85.22
2023-02-26T07:56:56.360Z,85.32
2023-02-26T07:57:56.349Z,85.53
2023-02-26T07:58:56.367Z,85.74
2023-02-26T07:59:56.328Z,85.74
2023-02-26T08:00:56.519Z,85.42
2023-02-26T08:01:56.303Z,85.22
2023-02-26T08:02:56.292Z,85.22
2023-02-26T08:03:56.273Z,85.11
2023-02-26T08:04:56.452Z,84.91
2023-02-26T08:05:56.244Z,84.66
2023-02-26T08:06:56.410Z,84.44
2023-02-26T08:07:56.241Z,84.23
2023-02-26T08:08:56.212Z,84.03
2023-02-26T08:09:56.366Z,84.03
2023-02-26T08:10:56.187Z,83.92
2023-02-26T08:11:56.180Z,83.88
2023-02-26T08:12:56.343Z,83.78
2023-02-26T08:13:56.146Z,83.57
2023-02-26T08:14:56.134Z,83.47
2023-02-26T08:15:56.171Z,83.36
2023-02-26T08:16:56.119Z,83.25
2023-02-26T08:17:56.105Z,83.57
2023-02-26T08:18:56.092Z,83.04
2023-02-26T08:19:56.064Z,82.48
2023-02-26T08:20:56.077Z,81.85
2023-02-26T08:21:56.058Z,81.75
2023-02-26T08:22:56.057Z,81.54
2023-02-26T08:23:56.054Z,81.43
2023-02-26T08:24:56.200Z,81.19
2023-02-26T08:25:55.999Z,80.66
2023-02-26T08:26:55.981Z,80.24
2023-02-26T08:27:55.969Z,79.72
2023-02-26T08:28:56.011Z,79.61
2023-02-26T08:29:55.964Z,79.72
2023-02-26T08:30:56.021Z,79.61
2023-02-26T08:31:56.020Z,79.51
2023-02-26T08:32:55.918Z,79.27
2023-02-26T08:33:55.905Z,79.05
2023-02-26T08:34:55.913Z,78.85
2023-02-26T08:35:55.892Z,78.32
2023-02-26T08:36:55.866Z,77.69
2023-02-26T08:37:55.861Z,77.38
2023-02-26T08:38:55.846Z,76.72
2023-02-26T08:39:55.841Z,77.03
2023-02-26T08:40:55.846Z,77.24
2023-02-26T08:41:55.987Z,77.55
2023-02-26T08:42:55.784Z,77.24
2023-02-26T08:43:55.784Z,77.42
2023-02-26T08:44:55.763Z,76.89
2023-02-26T08:45:55.939Z,76.47
2023-02-26T08:46:55.973Z,76.26
2023-02-26T08:47:57.214Z,76.57
2023-02-26T08:48:55.718Z,76.65
2023-02-26T08:49:55.710Z,76.02
2023-02-26T08:50:55.689Z,75.71
2023-02-26T08:51:55.703Z,75.49
2023-02-26T08:52:55.677Z,75.36
2023-02-26T08:53:55.654Z,75.88
2023-02-26T08:54:55.648Z,75.67
2023-02-26T08:55:55.631Z,75.22
2023-02-26T08:56:55.634Z,74.80
2023-02-26T08:57:55.622Z,74.28
2023-02-26T08:58:55.596Z,73.65
2023-02-26T08:59:55.583Z,73.83
2023-02-26T09:00:55.572Z,74.24
2023-02-26T09:01:55.797Z,73.83
2023-02-26T09:02:55.594Z,73.10
2023-02-26T09:03:55.714Z,72.64
2023-02-26T09:04:55.636Z,71.60
2023-02-26T09:05:55.512Z,71.70
2023-02-26T09:06:55.492Z,71.08
2023-02-26T09:07:55.480Z,71.50
2023-02-26T09:08:55.652Z,71.81
2023-02-26T09:09:55.458Z,71.81
2023-02-26T09:10:55.459Z,71.19
2023-02-26T09:11:55.466Z,71.88
2023-02-26T09:12:55.430Z,71.78
2023-02-26T09:13:55.408Z,70.94
2023-02-26T09:14:55.403Z,70.60
2023-02-26T09:15:55.608Z,70.28
2023-02-26T09:16:55.377Z,70.91
2023-02-26T09:17:55.358Z,71.40
2023-02-26T09:18:55.344Z,71.61
2023-02-26T09:19:55.327Z,70.22
2023-02-26T09:20:55.496Z,69.38
2023-02-26T09:21:55.306Z,68.35
2023-02-26T09:22:55.473Z,67.30
2023-02-26T09:23:55.286Z,68.13
2023-02-26T09:24:55.330Z,68.63
2023-02-26T09:25:55.259Z,68.32
2023-02-26T09:26:55.240Z,67.69
2023-02-26T09:27:57.662Z,67.76
2023-02-26T09:28:55.206Z,67.76
2023-02-26T09:29:55.205Z,67.76
2023-02-26T09:30:55.215Z,66.90
2023-02-26T09:31:55.213Z,66.80
2023-02-26T09:32:55.183Z,65.55
2023-02-26T09:33:55.153Z,65.96
2023-02-26T09:34:55.135Z,66.45
2023-02-26T09:35:55.135Z,65.72
2023-02-26T09:36:55.124Z,65.20
2023-02-26T09:37:55.126Z,66.35
2023-02-26T09:38:55.097Z,65.41
2023-02-26T09:39:55.118Z,65.28
2023-02-26T09:40:55.061Z,64.03
2023-02-26T09:41:55.053Z,63.43
2023-02-26T09:42:55.062Z,62.29
2023-02-26T09:43:55.041Z,63.15
2023-02-26T09:44:55.010Z,63.26
2023-02-26T09:45:55.063Z,62.84
2023-02-26T09:46:54.989Z,63.46
2023-02-26T09:47:55.035Z,64.58
2023-02-26T09:48:54.971Z,63.54
2023-02-26T09:49:54.963Z,62.22
2023-02-26T09:50:54.939Z,63.05
2023-02-26T09:51:54.937Z,63.43
2023-02-26T09:52:54.909Z,62.81
2023-02-26T09:53:54.931Z,62.29
2023-02-26T09:54:54.899Z,62.32
2023-02-26T09:55:54.895Z,62.53
2023-02-26T09:56:54.860Z,63.05
2023-02-26T09:57:54.855Z,63.12
2023-02-26T09:58:55.020Z,63.23
2023-02-26T09:59:54.832Z,63.72
2023-02-26T10:00:54.820Z,62.99
2023-02-26T10:01:54.861Z,62.16
2023-02-26T10:02:54.792Z,61.64
2023-02-26T10:03:54.994Z,62.37
2023-02-26T10:04:54.769Z,63.72
2023-02-26T10:05:54.751Z,62.65
2023-02-26T10:06:54.740Z,61.12
2023-02-26T10:07:54.721Z,61.57
2023-02-26T10:08:55.070Z,62.50
2023-02-26T10:09:54.700Z,62.92
2023-02-26T10:10:54.704Z,62.08
2023-02-26T10:11:54.670Z,63.23
2023-02-26T10:12:54.709Z,62.57
2023-02-26T10:13:58.506Z,60.83
2023-02-26T10:14:54.827Z,61.38
2023-02-26T10:15:54.620Z,62.01
2023-02-26T10:16:54.678Z,62.04
2023-02-26T10:17:54.598Z,62.87
2023-02-26T10:18:54.590Z,63.39
2023-02-26T10:19:54.572Z,63.39
2023-02-26T10:20:54.797Z,63.46
2023-02-26T10:21:54.548Z,63.75
2023-02-26T10:22:54.538Z,63.85
2023-02-26T10:23:54.522Z,61.74
2023-02-26T10:24:54.519Z,61.33
2023-02-26T10:25:54.509Z,61.22
2023-02-26T10:26:54.495Z,60.81
2023-02-26T10:27:54.476Z,60.39
2023-02-26T10:28:54.474Z,60.50
2023-02-26T10:29:54.455Z,60.08
2023-02-26T10:30:54.662Z,60.19
2023-02-26T10:31:54.484Z,59.28
2023-02-26T10:32:54.472Z,59.48
2023-02-26T10:33:54.391Z,60.21
2023-02-26T10:34:54.380Z,60.50
2023-02-26T10:35:54.371Z,61.92
2023-02-26T10:36:54.385Z,59.64
2023-02-26T10:37:54.659Z,59.01
2023-02-26T10:38:54.336Z,59.95
2023-02-26T10:39:54.319Z,59.50
2023-02-26T10:40:54.305Z,58.26
2023-02-26T10:41:54.285Z,58.26
2023-02-26T10:42:54.296Z,59.09
2023-02-26T10:43:54.266Z,60.18
2023-02-26T10:44:54.264Z,58.70
2023-02-26T10:45:54.289Z,57.35
2023-02-26T10:46:54.423Z,56.55
2023-02-26T10:47:54.213Z,56.47
2023-02-26T10:48:54.208Z,56.70
2023-02-26T10:49:54.192Z,57.98
2023-02-26T10:50:54.174Z,57.56
2023-02-26T10:51:54.169Z,58.70
2023-02-26T10:52:54.185Z,59.74
2023-02-26T10:53:54.302Z,58.81
2023-02-26T10:54:54.122Z,58.29
2023-02-26T10:55:54.113Z,57.56
2023-02-26T10:56:54.106Z,57.45
2023-02-26T10:57:54.090Z,57.35
2023-02-26T10:58:54.250Z,57.67
2023-02-26T10:59:54.058Z,57.45
2023-02-26T11:00:54.111Z,57.87
2023-02-26T11:01:54.041Z,58.05
2023-02-26T11:02:54.030Z,57.77
2023-02-26T11:03:54.195Z,56.83
2023-02-26T11:05:06.841Z,56.93
2023-02-26T11:05:55.083Z,57.04
2023-02-26T11:06:54.060Z,57.74
2023-02-26T11:07:54.041Z,57.20
2023-02-26T11:08:54.112Z,55.22
2023-02-26T11:09:54.134Z,54.58
2023-02-26T11:10:53.932Z,53.92
2023-02-26T11:11:53.912Z,56.29
2023-02-26T11:12:53.915Z,56.44
2023-02-26T11:13:54.061Z,55.38
2023-02-26T11:14:53.884Z,53.18
2023-02-26T11:15:54.099Z,52.90
2023-02-26T11:16:53.861Z,52.48
2023-02-26T11:17:53.861Z,53.54
2023-02-26T11:18:53.839Z,52.92
2023-02-26T11:19:53.812Z,53.31
2023-02-26T11:20:53.973Z,54.11
2023-02-26T11:21:53.793Z,52.98
2023-02-26T11:22:53.814Z,52.25
2023-02-26T11:23:53.761Z,53.36
2023-02-26T11:24:53.751Z,52.23
2023-02-26T11:25:53.754Z,53.21
2023-02-26T11:26:53.900Z,52.55
2023-02-26T11:27:53.702Z,52.81
2023-02-26T11:28:53.693Z,48.66
2023-02-26T11:29:53.684Z,50.08
2023-02-26T11:30:53.711Z,47.13
2023-02-26T11:31:53.871Z,48.08
2023-02-26T11:32:53.673Z,48.54
2023-02-26T11:33:53.634Z,48.44
2023-02-26T11:34:53.631Z,48.87
2023-02-26T11:35:53.603Z,49.64
2023-02-26T11:36:53.609Z,50.08
2023-02-26T11:37:53.604Z,51.84
2023-02-26T11:38:53.577Z,51.01
2023-02-26T11:39:53.553Z,51.21
2023-02-26T11:40:53.561Z,51.29
2023-02-26T11:41:53.699Z,48.94
2023-02-26T11:42:53.505Z,49.40
2023-02-26T11:43:53.686Z,51.26
2023-02-26T11:44:53.496Z,51.50
2023-02-26T11:45:53.546Z,51.91
2023-02-26T11:46:53.647Z,52.09
2023-02-26T11:47:53.455Z,51.06
2023-02-26T11:48:53.435Z,52.30
2023-02-26T11:49:53.599Z,54.63
2023-02-26T11:50:53.417Z,52.33
2023-02-26T11:51:53.396Z,51.48
2023-02-26T11:52:53.558Z,49.93
2023-02-26T11:53:53.384Z,50.34
2023-02-26T11:54:53.529Z,50.55
2023-02-26T11:55:53.351Z,49.95
2023-02-26T11:56:53.322Z,50.16
2023-02-26T11:57:53.319Z,49.43
2023-02-26T11:58:55.245Z,48.63
2023-02-26T11:59:53.292Z,48.75
2023-02-26T12:00:53.269Z,48.68
2023-02-26T12:01:53.267Z,50.54
2023-02-26T12:02:53.394Z,50.46
2023-02-26T12:03:53.349Z,51.47
2023-02-26T12:04:53.218Z,50.12
2023-02-26T12:05:53.422Z,50.67
2023-02-26T12:06:53.195Z,52.01
2023-02-26T12:07:53.195Z,50.15
2023-02-26T12:08:53.166Z,52.30
2023-02-26T12:09:53.172Z,51.55
2023-02-26T12:10:53.321Z,48.43
2023-02-26T12:11:53.134Z,49.46
2023-02-26T12:12:53.113Z,49.66
2023-02-26T12:13:53.125Z,50.89
2023-02-26T12:14:53.091Z,49.62
2023-02-26T12:15:53.158Z,48.07
2023-02-26T12:16:53.064Z,48.40
2023-02-26T12:17:53.065Z,51.48
2023-02-26T12:18:53.048Z,49.39
2023-02-26T12:19:53.032Z,49.08
2023-02-26T12:20:53.181Z,49.05
2023-02-26T12:21:53.013Z,48.10
2023-02-26T12:22:52.993Z,47.88
2023-02-26T12:23:52.980Z,46.10
2023-02-26T12:24:52.967Z,45.17
2023-02-26T12:25:53.131Z,44.89
2023-02-26T12:26:52.942Z,45.61
2023-02-26T12:27:52.942Z,46.25
2023-02-26T12:28:52.918Z,45.42
2023-02-26T12:29:52.907Z,46.99
2023-02-26T12:30:53.095Z,46.08
2023-02-26T12:31:53.202Z,46.50
2023-02-26T12:32:52.863Z,46.21
2023-02-26T12:33:52.853Z,47.86
2023-02-26T12:34:52.841Z,48.17
2023-02-26T12:35:52.830Z,47.94
2023-02-26T12:36:52.999Z,47.84
2023-02-26T12:37:52.805Z,46.91
2023-02-26T12:38:52.790Z,47.03
2023-02-26T12:39:52.782Z,47.45
2023-02-26T12:40:52.765Z,48.58
2023-02-26T12:41:52.755Z,46.83
2023-02-26T12:42:52.902Z,46.21
2023-02-26T12:43:52.726Z,47.27
2023-02-26T12:44:52.713Z,49.15
2023-02-26T12:45:52.703Z,49.25
2023-02-26T12:46:52.732Z,47.20
2023-02-26T12:47:52.850Z,47.85
2023-02-26T12:48:52.662Z,50.04
2023-02-26T12:49:52.652Z,50.12
2023-02-26T12:50:52.642Z,48.69
2023-02-26T12:51:52.622Z,47.77